Time,TemperatureF,DewpointF,PressureIn,WindDirection,WindDirectionDegrees,WindSpeedMPH,WindSpeedGustMPH,Humidity,HourlyPrecipIn,Conditions,Clouds,dailyrainin,SolarRadiationWatts/m^2,SoftwareType,DateUTC
2013-01-12 00:03:00,38.0,38.0,-100.00,SW,222,4.0,6.0,100,0.00,,,0.32,0.000000,,2013-01-12 05:03:00,
2013-01-12 00:32:00,37.0,37.0,-100.00,SW,216,3.0,5.0,100,0.00,,,0.32,0.000000,,2013-01-12 05:32:00,
2013-01-12 00:42:00,37.0,37.0,-100.00,SW,216,3.0,5.0,100,0.00,,,0.32,0.000000,,2013-01-12 05:42:00,
2013-01-12 00:53:00,37.0,37.0,-100.00,SW,216,3.0,5.0,100,0.00,,,0.32,0.000000,,2013-01-12 05:53:00,
2013-01-12 01:03:00,37.0,37.0,-100.00,SW,216,3.0,5.0,100,0.00,,,0.32,0.000000,,2013-01-12 06:03:00,
2013-01-12 01:33:00,37.0,37.0,-100.00,South,189,1.0,4.0,100,0.00,,,0.32,0.000000,,2013-01-12 06:33:00,
2013-01-12 01:43:00,37.0,37.0,-100.00,South,189,1.0,4.0,100,0.00,,,0.32,0.000000,,2013-01-12 06:43:00,
2013-01-12 01:53:00,37.0,37.0,-100.00,South,189,1.0,4.0,100,0.00,,,0.32,0.000000,,2013-01-12 06:53:00,
2013-01-12 02:02:00,37.0,37.0,-100.00,South,189,1.0,4.0,100,0.00,,,0.32,0.000000,,2013-01-12 07:02:00,
2013-01-12 02:32:00,37.0,37.0,-100.00,North,8,2.0,4.0,100,0.00,,,0.32,0.000000,,2013-01-12 07:32:00,
2013-01-12 02:42:00,37.0,37.0,-100.00,North,8,2.0,4.0,100,0.00,,,0.32,0.000000,,2013-01-12 07:42:00,
2013-01-12 02:53:00,37.0,37.0,-100.00,North,8,2.0,4.0,100,0.00,,,0.32,0.000000,,2013-01-12 07:53:00,
2013-01-12 03:02:00,37.0,37.0,-100.00,North,8,2.0,4.0,100,0.00,,,0.32,0.000000,,2013-01-12 08:02:00,
2013-01-12 03:32:00,37.0,37.0,-100.00,NE,50,4.0,7.0,100,0.00,,,0.32,0.000000,,2013-01-12 08:32:00,
2013-01-12 03:42:00,37.0,37.0,-100.00,NE,50,4.0,7.0,100,0.00,,,0.32,0.000000,,2013-01-12 08:42:00,
2013-01-12 03:53:00,37.0,37.0,-100.00,NE,50,4.0,7.0,100,0.00,,,0.32,0.000000,,2013-01-12 08:53:00,
2013-01-12 04:02:00,37.0,37.0,-100.00,NE,50,4.0,7.0,100,0.00,,,0.32,0.000000,,2013-01-12 09:02:00,
2013-01-12 04:33:00,36.0,36.0,-100.00,NNW,341,2.0,7.0,100,0.00,,,0.32,0.000000,,2013-01-12 09:33:00,
2013-01-12 04:43:00,36.0,36.0,-100.00,NNW,341,2.0,7.0,100,0.00,,,0.32,0.000000,,2013-01-12 09:43:00,
2013-01-12 04:53:00,36.0,36.0,-100.00,NNW,341,2.0,7.0,100,0.00,,,0.32,0.000000,,2013-01-12 09:53:00,
2013-01-12 05:02:00,36.0,36.0,-100.00,NNW,341,2.0,7.0,100,0.00,,,0.32,0.000000,,2013-01-12 10:02:00,
2013-01-12 05:32:00,36.0,36.0,-100.00,North,10,3.0,6.0,100,0.00,,,0.32,0.000000,,2013-01-12 10:32:00,
2013-01-12 05:43:00,36.0,36.0,-100.00,North,10,3.0,6.0,100,0.00,,,0.32,0.000000,,2013-01-12 10:43:00,
2013-01-12 05:52:00,36.0,36.0,-100.00,North,10,3.0,6.0,100,0.00,,,0.32,0.000000,,2013-01-12 10:52:00,
2013-01-12 06:02:00,36.0,36.0,-100.00,North,10,3.0,6.0,100,0.00,,,0.32,0.000000,,2013-01-12 11:02:00,
2013-01-12 06:33:00,36.0,36.0,-100.00,ENE,71,3.0,5.0,100,0.00,,,0.32,0.000000,,2013-01-12 11:33:00,
2013-01-12 06:43:00,36.0,36.0,-100.00,ENE,71,3.0,5.0,100,0.00,,,0.32,0.000000,,2013-01-12 11:43:00,
2013-01-12 06:53:00,36.0,36.0,-100.00,ENE,71,3.0,5.0,100,0.00,,,0.32,0.000000,,2013-01-12 11:53:00,
2013-01-12 07:03:00,36.0,36.0,-100.00,ENE,71,3.0,5.0,100,0.00,,,0.32,0.000000,,2013-01-12 12:03:00,
2013-01-12 07:33:00,36.0,36.0,-100.00,ENE,70,3.0,5.0,100,0.01,,,0.33,0.000000,,2013-01-12 12:33:00,
2013-01-12 07:43:00,36.0,36.0,-100.00,ENE,70,3.0,5.0,100,0.01,,,0.33,0.000000,,2013-01-12 12:43:00,
2013-01-12 07:53:00,36.0,36.0,-100.00,ENE,70,3.0,5.0,100,0.01,,,0.33,0.000000,,2013-01-12 12:53:00,
2013-01-12 08:02:00,36.0,36.0,-100.00,ENE,70,3.0,5.0,100,0.01,,,0.33,0.000000,,2013-01-12 13:02:00,
2013-01-12 08:33:00,36.0,36.0,-100.00,SSE,165,2.0,5.0,100,0.00,,,0.33,8.000000,,2013-01-12 13:33:00,
2013-01-12 08:43:00,36.0,36.0,-100.00,SSE,165,2.0,5.0,100,0.00,,,0.33,8.000000,,2013-01-12 13:43:00,
2013-01-12 08:53:00,36.0,36.0,-100.00,SSE,165,2.0,5.0,100,0.00,,,0.33,8.000000,,2013-01-12 13:53:00,
2013-01-12 09:02:00,36.0,36.0,-100.00,SSE,165,2.0,5.0,100,0.00,,,0.33,8.000000,,2013-01-12 14:02:00,
2013-01-12 09:33:00,39.0,39.0,-100.00,West,277,2.0,5.0,100,0.00,,,0.33,40.000000,,2013-01-12 14:33:00,
2013-01-12 09:43:00,39.0,39.0,-100.00,West,277,2.0,5.0,100,0.00,,,0.33,40.000000,,2013-01-12 14:43:00,
2013-01-12 09:53:00,39.0,39.0,-100.00,West,277,2.0,5.0,100,0.00,,,0.33,40.000000,,2013-01-12 14:53:00,
2013-01-12 10:03:00,39.0,39.0,-100.00,West,277,2.0,5.0,100,0.00,,,0.33,40.000000,,2013-01-12 15:03:00,
2013-01-12 10:34:00,43.0,43.0,-100.00,SW,222,4.0,8.0,100,0.00,,,0.33,71.000000,,2013-01-12 15:34:00,
2013-01-12 10:43:00,43.0,43.0,-100.00,SW,222,4.0,8.0,100,0.00,,,0.33,71.000000,,2013-01-12 15:43:00,
2013-01-12 10:53:00,43.0,43.0,-100.00,SW,222,4.0,8.0,100,0.00,,,0.33,71.000000,,2013-01-12 15:53:00,
2013-01-12 11:03:00,43.0,43.0,-100.00,SW,222,4.0,8.0,100,0.00,,,0.33,71.000000,,2013-01-12 16:03:00,
2013-01-12 11:33:00,45.0,45.0,-100.00,SSW,206,6.0,10.0,100,0.00,,,0.33,116.000000,,2013-01-12 16:33:00,
2013-01-12 11:43:00,45.0,45.0,-100.00,SSW,206,6.0,10.0,100,0.00,,,0.33,116.000000,,2013-01-12 16:43:00,
2013-01-12 11:53:00,45.0,45.0,-100.00,SSW,206,6.0,10.0,100,0.00,,,0.33,116.000000,,2013-01-12 16:53:00,
2013-01-12 12:02:00,45.0,45.0,-100.00,SSW,206,6.0,10.0,100,0.00,,,0.33,116.000000,,2013-01-12 17:02:00,
2013-01-12 12:33:00,45.0,45.0,-100.00,WSW,244,4.0,10.0,100,0.00,,,0.33,210.000000,,2013-01-12 17:33:00,
2013-01-12 12:43:00,45.0,45.0,-100.00,WSW,244,4.0,10.0,100,0.00,,,0.33,210.000000,,2013-01-12 17:43:00,
2013-01-12 12:53:00,45.0,45.0,-100.00,WSW,244,4.0,10.0,100,0.00,,,0.33,210.000000,,2013-01-12 17:53:00,
2013-01-12 13:03:00,45.0,45.0,-100.00,WSW,244,4.0,10.0,100,0.00,,,0.33,210.000000,,2013-01-12 18:03:00,
2013-01-12 13:33:00,49.0,49.0,-100.00,WSW,245,4.0,7.0,100,0.00,,,0.33,411.000000,,2013-01-12 18:33:00,
2013-01-12 13:43:00,49.0,49.0,-100.00,WSW,245,4.0,7.0,100,0.00,,,0.33,411.000000,,2013-01-12 18:43:00,
2013-01-12 13:53:00,49.0,49.0,-100.00,WSW,245,4.0,7.0,100,0.00,,,0.33,411.000000,,2013-01-12 18:53:00,
2013-01-12 14:03:00,49.0,49.0,-100.00,WSW,245,4.0,7.0,100,0.00,,,0.33,411.000000,,2013-01-12 19:03:00,
2013-01-12 14:33:00,51.0,51.0,-100.00,SW,236,5.0,12.0,100,0.00,,,0.33,375.000000,,2013-01-12 19:33:00,
2013-01-12 14:43:00,51.0,51.0,-100.00,SW,236,5.0,12.0,100,0.00,,,0.33,375.000000,,2013-01-12 19:43:00,
2013-01-12 14:53:00,51.0,51.0,-100.00,SW,236,5.0,12.0,100,0.00,,,0.33,375.000000,,2013-01-12 19:53:00,
2013-01-12 15:03:00,51.0,51.0,-100.00,SW,236,5.0,12.0,100,0.00,,,0.33,375.000000,,2013-01-12 20:03:00,
2013-01-12 15:33:00,50.0,48.0,-100.00,WSW,251,5.0,14.0,94,0.00,,,0.26,306.000000,,2013-01-12 20:33:00,
2013-01-12 15:43:00,50.0,48.0,-100.00,WSW,251,5.0,14.0,94,0.00,,,0.26,306.000000,,2013-01-12 20:43:00,
2013-01-12 15:53:00,50.0,48.0,-100.00,WSW,251,5.0,14.0,94,0.00,,,0.26,306.000000,,2013-01-12 20:53:00,
2013-01-12 16:03:00,50.0,48.0,-100.00,WSW,251,5.0,14.0,94,0.00,,,0.26,306.000000,,2013-01-12 21:03:00,
2013-01-12 16:33:00,49.0,47.0,-100.00,North,357,2.0,10.0,93,0.00,,,0.20,155.000000,,2013-01-12 21:33:00,
2013-01-12 16:43:00,49.0,47.0,-100.00,North,357,2.0,10.0,93,0.00,,,0.20,155.000000,,2013-01-12 21:43:00,
2013-01-12 16:53:00,49.0,47.0,-100.00,North,357,2.0,10.0,93,0.00,,,0.20,155.000000,,2013-01-12 21:53:00,
2013-01-12 17:03:00,49.0,47.0,-100.00,North,357,2.0,10.0,93,0.00,,,0.20,155.000000,,2013-01-12 22:03:00,
2013-01-12 17:33:00,47.0,47.0,-100.00,South,191,7.0,11.0,100,0.00,,,0.09,19.000000,,2013-01-12 22:33:00,
2013-01-12 17:43:00,47.0,47.0,-100.00,South,191,7.0,11.0,100,0.00,,,0.09,19.000000,,2013-01-12 22:43:00,
2013-01-12 17:53:00,47.0,47.0,-100.00,South,191,7.0,11.0,100,0.00,,,0.09,19.000000,,2013-01-12 22:53:00,
2013-01-12 18:03:00,47.0,47.0,-100.00,South,191,7.0,11.0,100,0.00,,,0.09,19.000000,,2013-01-12 23:03:00,
2013-01-12 18:33:00,44.0,44.0,-100.00,South,180,5.0,8.0,100,0.00,,,0.03,1.000000,,2013-01-12 23:33:00,
2013-01-12 18:43:00,44.0,44.0,-100.00,South,180,5.0,8.0,100,0.00,,,0.03,1.000000,,2013-01-12 23:43:00,
2013-01-12 18:53:00,44.0,44.0,-100.00,South,180,5.0,8.0,100,0.00,,,0.03,1.000000,,2013-01-12 23:53:00,
2013-01-12 19:03:00,44.0,44.0,-100.00,South,180,5.0,8.0,100,0.00,,,0.03,1.000000,,2013-01-13 00:03:00,
2013-01-12 19:33:00,44.0,44.0,-100.00,South,190,5.0,7.0,100,0.00,,,0.02,0.000000,,2013-01-13 00:33:00,
2013-01-12 19:43:00,44.0,44.0,-100.00,South,190,5.0,7.0,100,0.00,,,0.02,0.000000,,2013-01-13 00:43:00,
2013-01-12 19:53:00,44.0,44.0,-100.00,South,190,5.0,7.0,100,0.00,,,0.02,0.000000,,2013-01-13 00:53:00,
2013-01-12 20:03:00,44.0,44.0,-100.00,South,190,5.0,7.0,100,0.00,,,0.02,0.000000,,2013-01-13 01:03:00,
2013-01-12 20:33:00,46.0,46.0,-100.00,South,171,7.0,11.0,100,0.00,,,0.01,0.000000,,2013-01-13 01:33:00,
2013-01-12 20:43:00,46.0,46.0,-100.00,South,171,7.0,11.0,100,0.00,,,0.01,0.000000,,2013-01-13 01:43:00,
2013-01-12 20:53:00,46.0,46.0,-100.00,South,171,7.0,11.0,100,0.00,,,0.01,0.000000,,2013-01-13 01:53:00,
2013-01-12 21:02:00,46.0,46.0,-100.00,South,171,7.0,11.0,100,0.00,,,0.01,0.000000,,2013-01-13 02:02:00,
2013-01-12 21:33:00,46.0,46.0,-100.00,South,169,7.0,11.0,100,0.00,,,0.01,0.000000,,2013-01-13 02:33:00,
2013-01-12 21:43:00,46.0,46.0,-100.00,South,169,7.0,11.0,100,0.00,,,0.01,0.000000,,2013-01-13 02:43:00,
2013-01-12 21:53:00,46.0,46.0,-100.00,South,169,7.0,11.0,100,0.00,,,0.01,0.000000,,2013-01-13 02:53:00,
2013-01-12 22:03:00,46.0,46.0,-100.00,South,169,7.0,11.0,100,0.00,,,0.01,0.000000,,2013-01-13 03:03:00,
2013-01-12 22:33:00,45.0,45.0,-100.00,South,182,6.0,13.0,100,0.00,,,0.01,0.000000,,2013-01-13 03:33:00,
2013-01-12 22:43:00,45.0,45.0,-100.00,South,182,6.0,13.0,100,0.00,,,0.01,0.000000,,2013-01-13 03:43:00,
2013-01-12 22:53:00,45.0,45.0,-100.00,South,182,6.0,13.0,100,0.00,,,0.01,0.000000,,2013-01-13 03:53:00,
2013-01-12 23:03:00,45.0,45.0,-100.00,South,182,6.0,13.0,100,0.00,,,0.01,0.000000,,2013-01-13 04:03:00,
2013-01-12 23:33:00,45.0,45.0,-100.00,South,180,6.0,11.0,100,0.00,,,0.01,0.000000,,2013-01-13 04:33:00,
2013-01-12 23:43:00,45.0,45.0,-100.00,South,180,6.0,11.0,100,0.00,,,0.01,0.000000,,2013-01-13 04:43:00,
2013-01-12 23:53:00,45.0,45.0,-100.00,South,180,6.0,11.0,100,0.00,,,0.01,0.000000,,2013-01-13 04:53:00,